Time;durP1;ratioP1;P1;durP2;ratioP2;P2;SDS_P1;SDS_P2;PMS_P1;PMS_P2;Temp;Humidity;BMP_temperature;BMP_pressure;BME280_temperature;BME280_humidity;BME280_pressure;Samples;Min_cycle;Max_cycle;Signal;HPM_P1;HPM_P2
2023/01/30 00:00:30;;;;;;;;;;;6.60;99.90;;;;;;4996282;28;212871;-71
2023/01/30 00:02:56;;;;;;;;;;;6.70;99.90;;;;;;5041702;28;19921;-70
2023/01/30 00:05:22;;;;;;;;;;;6.70;99.90;;;;;;4965618;28;210651;-71
2023/01/30 00:07:48;;;;;;;;;;;6.70;99.90;;;;;;5044461;28;20020;-71
2023/01/30 00:10:14;;;;;;;;;;;6.80;99.90;;;;;;4978775;28;209515;-72
2023/01/30 00:12:40;;;;;;;;;;;6.80;99.90;;;;;;5042077;28;19947;-71
2023/01/30 00:15:07;;;;;;;;;;;6.80;99.90;;;;;;4993164;28;154576;-71
2023/01/30 00:17:32;;;;;;;;;;;6.80;99.90;;;;;;5043845;28;19935;-71
2023/01/30 00:19:58;;;;;;;;;;;6.80;99.90;;;;;;4972090;28;243776;-71
2023/01/30 00:22:24;;;;;;;;;;;6.90;99.90;;;;;;5035918;28;19921;-71
2023/01/30 00:24:50;;;;;;;;;;;6.90;99.90;;;;;;4973713;28;207299;-70
2023/01/30 00:27:16;;;;;;;;;;;6.90;99.90;;;;;;5032461;28;19928;-72
2023/01/30 00:29:42;;;;;;;;;;;6.90;99.90;;;;;;4993328;28;208267;-72
2023/01/30 00:32:08;;;;;;;;;;;6.90;99.90;;;;;;5043248;28;19924;-71
2023/01/30 00:34:34;;;;;;;;;;;7.00;99.90;;;;;;5000009;28;208740;-70
2023/01/30 00:37:00;;;;;;;;;;;7.00;99.90;;;;;;5014947;28;19932;-70
2023/01/30 00:39:26;;;;;;;;;;;7.00;99.90;;;;;;4978580;28;205002;-71
2023/01/30 00:47:21;;;;;;;;;;;7.00;99.90;;;;;;5038291;28;19929;-71
2023/01/30 00:49:47;;;;;;;;;;;7.00;99.90;;;;;;4984050;28;209545;-71
2023/01/30 00:52:13;;;;;;;;;;;7.00;99.90;;;;;;5041698;28;19922;-70
2023/01/30 00:54:39;;;;;;;;;;;7.00;99.90;;;;;;4979990;28;57918;-71
2023/01/30 00:57:05;;;;;;;;;;;7.00;99.90;;;;;;5055797;28;19947;-70
2023/01/30 00:59:31;;;;;;;;;;;7.00;99.90;;;;;;4999641;28;207363;-71
2023/01/30 01:01:57;;;;;;;;;;;7.00;99.90;;;;;;5048073;28;19925;-70
2023/01/30 01:04:23;;;;;;;;;;;6.90;99.90;;;;;;4989503;28;208932;-71
2023/01/30 01:06:49;;;;;;;;;;;6.90;99.90;;;;;;5032446;28;19925;-70
2023/01/30 01:09:15;;;;;;;;;;;6.80;99.90;;;;;;4973834;28;233535;-70
2023/01/30 01:11:40;;;;;;;;;;;6.80;99.90;;;;;;5035032;28;20363;-69
2023/01/30 01:14:06;;;;;;;;;;;6.70;99.90;;;;;;4981484;28;206962;-70
2023/01/30 01:16:33;;;;;;;;;;;6.70;99.90;;;;;;5044544;28;19970;-70
2023/01/30 01:18:59;;;;;;;;;;;6.70;99.90;;;;;;4988176;28;207107;-70
2023/01/30 01:21:25;;;;;;;;;;;6.60;99.90;;;;;;5020449;28;19925;-70
2023/01/30 01:23:52;;;;;;;;;;;6.60;99.90;;;;;;4995135;28;97707;-69
2023/01/30 01:26:18;;;;;;;;;;;6.60;99.90;;;;;;5059232;28;20324;-70
2023/01/30 01:28:44;;;;;;;;;;;6.60;99.90;;;;;;4998133;28;86918;-71
2023/01/30 01:31:12;;;;;;;;;;;6.60;99.90;;;;;;5060094;28;19932;-69
2023/01/30 01:33:38;;;;;;;;;;;6.50;99.90;;;;;;4987441;28;206867;-70
2023/01/30 01:36:04;;;;;;;;;;;6.60;99.90;;;;;;5059019;28;19925;-70
2023/01/30 01:38:30;;;;;;;;;;;6.60;99.90;;;;;;4988891;28;259302;-72
2023/01/30 01:41:04;;;;;;;;;;;6.60;99.90;;;;;;5020148;28;19929;-73
2023/01/30 01:43:32;;;;;;;;;;;6.60;99.90;;;;;;4991720;28;208483;-73
2023/01/30 01:46:18;;;;;;;;;;;6.60;99.90;;;;;;5056792;28;19929;-72
2023/01/30 01:48:47;;;;;;;;;;;6.60;99.90;;;;;;5011107;28;211689;-73
2023/01/30 01:51:45;;;;;;;;;;;6.60;99.90;;;;;;5058624;28;19924;-73
2023/01/30 01:54:14;;;;;;;;;;;6.60;99.90;;;;;;4970398;28;211644;-71
2023/01/30 01:56:41;;;;;;;;;;;6.60;99.90;;;;;;5044535;28;19936;-72
2023/01/30 01:59:10;;;;;;;;;;;6.60;99.90;;;;;;5014064;28;208399;-71
2023/01/30 02:01:36;;;;;;;;;;;6.60;99.90;;;;;;5053706;28;19965;-71
2023/01/30 02:04:03;;;;;;;;;;;6.60;99.90;;;;;;4979807;28;206550;-71
2023/01/30 02:06:30;;;;;;;;;;;6.60;99.90;;;;;;5060129;28;19925;-70
2023/01/30 02:09:02;;;;;;;;;;;6.60;99.90;;;;;;5007763;28;215274;-69
2023/01/30 02:11:30;;;;;;;;;;;6.60;99.90;;;;;;5041156;28;19931;-70
2023/01/30 02:13:56;;;;;;;;;;;6.60;99.90;;;;;;5003870;28;209244;-71
2023/01/30 02:16:22;;;;;;;;;;;6.60;99.90;;;;;;5065869;28;19932;-70
2023/01/30 02:18:48;;;;;;;;;;;6.60;99.90;;;;;;4995747;28;208434;-70
2023/01/30 02:21:25;;;;;;;;;;;6.60;99.90;;;;;;5070661;28;19924;-71
2023/01/30 02:23:54;;;;;;;;;;;6.70;99.90;;;;;;4985584;28;208866;-70
2023/01/30 02:26:49;;;;;;;;;;;6.70;99.90;;;;;;5026648;28;19920;-71
2023/01/30 02:29:44;;;;;;;;;;;6.70;99.90;;;;;;4882676;28;210027;-70
2023/01/30 02:32:10;;;;;;;;;;;6.70;99.90;;;;;;4846883;29;19931;-70
2023/01/30 02:34:55;;;;;;;;;;;6.70;99.90;;;;;;4801225;29;208545;-69
2023/01/30 02:37:28;;;;;;;;;;;6.80;99.90;;;;;;4842593;29;19936;-71
2023/01/30 02:40:02;;;;;;;;;;;6.70;99.90;;;;;;4818656;29;141728;-69
2023/01/30 02:42:31;;;;;;;;;;;6.70;99.90;;;;;;4861969;29;20500;-69
2023/01/30 02:45:00;;;;;;;;;;;6.80;99.90;;;;;;4823564;29;73265;-68
2023/01/30 02:47:36;;;;;;;;;;;6.70;99.90;;;;;;4851460;29;19932;-70
2023/01/30 02:50:17;;;;;;;;;;;6.80;99.90;;;;;;4827941;29;231659;-69
2023/01/30 02:52:43;;;;;;;;;;;6.80;99.90;;;;;;4868684;29;19924;-68
2023/01/30 02:55:17;;;;;;;;;;;6.80;99.90;;;;;;4820460;29;207278;-70
2023/01/30 02:57:43;;;;;;;;;;;6.80;99.90;;;;;;4869080;29;19938;-69
2023/01/30 03:00:09;;;;;;;;;;;6.80;99.90;;;;;;4818030;29;208877;-68
2023/01/30 03:03:06;;;;;;;;;;;6.90;99.90;;;;;;4864107;29;19940;-69
2023/01/30 03:05:32;;;;;;;;;;;6.90;99.90;;;;;;4836299;28;199002;-69
2023/01/30 03:08:16;;;;;;;;;;;6.90;99.90;;;;;;4945486;28;19925;-69
2023/01/30 03:10:48;;;;;;;;;;;6.80;99.90;;;;;;4975980;28;206457;-69
2023/01/30 03:13:14;;;;;;;;;;;6.90;99.90;;;;;;5015149;28;208441;-68
2023/01/30 03:15:39;;;;;;;;;;;6.90;99.90;;;;;;5013931;28;204383;-68
2023/01/30 03:18:06;;;;;;;;;;;6.90;99.90;;;;;;5046178;28;19956;-69
2023/01/30 03:20:36;;;;;;;;;;;6.90;99.90;;;;;;5012390;28;157501;-69
2023/01/30 03:23:02;;;;;;;;;;;6.90;99.90;;;;;;5044427;28;19929;-69
2023/01/30 03:25:27;;;;;;;;;;;7.00;99.90;;;;;;5005508;28;209223;-70
2023/01/30 03:27:54;;;;;;;;;;;7.00;99.90;;;;;;5045403;28;19932;-71
2023/01/30 03:30:20;;;;;;;;;;;7.00;99.90;;;;;;5009170;28;208359;-71
2023/01/30 03:32:46;;;;;;;;;;;7.00;99.90;;;;;;5040956;28;19921;-72
2023/01/30 03:35:12;;;;;;;;;;;7.00;99.90;;;;;;4993834;28;209062;-71
2023/01/30 03:37:38;;;;;;;;;;;7.00;99.90;;;;;;5027576;28;20512;-71
2023/01/30 03:40:04;;;;;;;;;;;7.00;99.90;;;;;;5013790;28;209544;-71
2023/01/30 03:42:30;;;;;;;;;;;7.00;99.90;;;;;;5059994;28;19924;-72
2023/01/30 03:44:56;;;;;;;;;;;7.00;99.90;;;;;;5017105;28;209032;-72
2023/01/30 03:47:22;;;;;;;;;;;7.00;99.90;;;;;;5046721;28;19928;-73
2023/01/30 03:49:48;;;;;;;;;;;6.90;99.90;;;;;;4986822;28;209312;-73
2023/01/30 03:52:14;;;;;;;;;;;6.90;99.90;;;;;;5024147;28;20511;-73
2023/01/30 03:54:40;;;;;;;;;;;6.90;99.90;;;;;;4991554;28;208567;-73
2023/01/30 03:57:05;;;;;;;;;;;6.90;99.90;;;;;;5039569;28;19933;-73
2023/01/30 03:59:32;;;;;;;;;;;6.80;99.90;;;;;;4992574;28;210473;-73
2023/01/30 04:01:58;;;;;;;;;;;6.80;99.90;;;;;;5022177;28;20301;-74
2023/01/30 04:04:24;;;;;;;;;;;6.70;99.90;;;;;;4956108;28;212751;-74
2023/01/30 04:06:50;;;;;;;;;;;6.70;99.90;;;;;;5034579;28;19929;-74
2023/01/30 04:09:15;;;;;;;;;;;6.70;99.90;;;;;;5004554;28;215941;-74
2023/01/30 04:11:41;;;;;;;;;;;6.70;99.90;;;;;;5070602;28;19928;-73
2023/01/30 04:14:07;;;;;;;;;;;6.60;99.90;;;;;;5022228;28;207930;-74
2023/01/30 04:16:33;;;;;;;;;;;6.60;99.90;;;;;;5051866;28;20026;-75
2023/01/30 04:18:59;;;;;;;;;;;6.60;99.90;;;;;;5008743;28;208533;-75
2023/01/30 04:21:25;;;;;;;;;;;6.50;99.90;;;;;;5072132;28;19925;-74
2023/01/30 04:23:51;;;;;;;;;;;6.50;99.90;;;;;;4999837;28;160043;-74
2023/01/30 04:26:17;;;;;;;;;;;6.50;99.90;;;;;;5046181;28;20034;-74
2023/01/30 04:28:43;;;;;;;;;;;6.40;99.90;;;;;;5012707;28;213302;-73
2023/01/30 04:31:09;;;;;;;;;;;6.40;99.90;;;;;;5057632;28;19924;-74
2023/01/30 04:33:36;;;;;;;;;;;6.40;99.90;;;;;;4996937;28;208856;-73
2023/01/30 04:36:02;;;;;;;;;;;6.40;99.90;;;;;;5059118;28;20613;-73
2023/01/30 04:38:29;;;;;;;;;;;6.30;99.90;;;;;;4994476;28;208775;-73
2023/01/30 04:40:55;;;;;;;;;;;6.30;99.90;;;;;;5038070;28;19920;-73
2023/01/30 04:43:22;;;;;;;;;;;6.30;99.90;;;;;;5025402;28;209429;-73
2023/01/30 04:45:49;;;;;;;;;;;6.20;99.90;;;;;;5018083;28;208174;-74
2023/01/30 04:48:15;;;;;;;;;;;6.20;99.90;;;;;;5007374;28;208338;-74
2023/01/30 04:50:42;;;;;;;;;;;6.10;99.90;;;;;;5019355;28;54109;-74
2023/01/30 04:53:08;;;;;;;;;;;6.10;99.90;;;;;;5023532;28;20297;-74
2023/01/30 04:55:34;;;;;;;;;;;6.10;99.90;;;;;;4998768;28;208961;-73
2023/01/30 04:58:00;;;;;;;;;;;6.10;99.90;;;;;;5022646;28;20360;-74
2023/01/30 05:00:26;;;;;;;;;;;6.00;99.90;;;;;;4972855;28;211718;-74
2023/01/30 05:02:54;;;;;;;;;;;6.00;99.90;;;;;;5039884;28;19928;-74
2023/01/30 05:05:21;;;;;;;;;;;6.00;99.90;;;;;;4974428;28;234494;-74
2023/01/30 05:07:47;;;;;;;;;;;6.00;99.90;;;;;;5059716;28;19920;-74
2023/01/30 05:10:14;;;;;;;;;;;5.90;99.90;;;;;;5007110;28;209067;-74
2023/01/30 05:12:39;;;;;;;;;;;6.00;99.90;;;;;;5040474;28;19932;-74
2023/01/30 05:15:06;;;;;;;;;;;6.00;99.90;;;;;;5001016;28;208517;-75
2023/01/30 05:17:32;;;;;;;;;;;6.00;99.90;;;;;;5042802;28;19929;-75
2023/01/30 05:19:58;;;;;;;;;;;6.00;99.90;;;;;;5007701;28;211606;-74
2023/01/30 05:22:24;;;;;;;;;;;5.90;99.90;;;;;;5028430;28;20011;-75
2023/01/30 05:24:50;;;;;;;;;;;6.00;99.90;;;;;;4959489;28;206679;-75
2023/01/30 05:27:16;;;;;;;;;;;5.90;99.90;;;;;;5038562;28;20417;-74
2023/01/30 05:29:42;;;;;;;;;;;5.90;99.90;;;;;;4993647;28;248050;-75
2023/01/30 05:32:14;;;;;;;;;;;5.80;99.90;;;;;;5058864;28;20408;-74
2023/01/30 05:34:41;;;;;;;;;;;5.80;99.90;;;;;;4989107;28;193966;-75
2023/01/30 05:37:07;;;;;;;;;;;5.70;99.90;;;;;;5038510;28;19939;-74
2023/01/30 05:39:32;;;;;;;;;;;5.70;99.90;;;;;;4986774;28;81500;-74
2023/01/30 05:41:58;;;;;;;;;;;5.70;99.90;;;;;;5043780;28;20458;-74
2023/01/30 05:44:24;;;;;;;;;;;5.70;99.90;;;;;;5007188;28;209048;-73
2023/01/30 05:46:50;;;;;;;;;;;5.60;99.90;;;;;;5050295;28;19924;-73
2023/01/30 05:49:16;;;;;;;;;;;5.60;99.90;;;;;;5006781;28;214393;-74
2023/01/30 05:51:42;;;;;;;;;;;5.60;99.90;;;;;;5060432;28;19924;-74
2023/01/30 05:54:08;;;;;;;;;;;5.60;99.90;;;;;;5014833;28;209087;-73
2023/01/30 05:56:34;;;;;;;;;;;5.50;99.90;;;;;;5038338;28;20408;-73
2023/01/30 05:59:00;;;;;;;;;;;5.50;99.90;;;;;;5002910;28;64323;-72
2023/01/30 06:01:27;;;;;;;;;;;5.40;99.90;;;;;;5047002;28;19932;-74
2023/01/30 06:03:53;;;;;;;;;;;5.50;99.90;;;;;;4994258;28;211623;-73
2023/01/30 06:06:19;;;;;;;;;;;5.50;99.90;;;;;;5037222;28;19944;-72
2023/01/30 06:08:45;;;;;;;;;;;5.50;99.90;;;;;;4981387;28;207036;-73
2023/01/30 06:11:13;;;;;;;;;;;5.50;99.90;;;;;;5054684;28;19936;-73
2023/01/30 06:13:40;;;;;;;;;;;5.60;99.90;;;;;;4984970;28;211959;-73
2023/01/30 06:16:07;;;;;;;;;;;5.60;99.90;;;;;;5053528;28;19939;-73
2023/01/30 06:18:33;;;;;;;;;;;5.60;99.90;;;;;;5009823;28;209590;-73
2023/01/30 06:20:59;;;;;;;;;;;5.70;99.90;;;;;;5065640;28;19917;-73
2023/01/30 06:23:25;;;;;;;;;;;5.70;99.90;;;;;;5000495;28;209053;-74
2023/01/30 06:25:51;;;;;;;;;;;5.70;99.90;;;;;;5034282;28;19920;-72
2023/01/30 06:28:18;;;;;;;;;;;5.80;99.90;;;;;;5041586;28;208097;-73
2023/01/30 06:30:43;;;;;;;;;;;5.80;99.90;;;;;;5017581;28;256541;-74
2023/01/30 06:33:10;;;;;;;;;;;5.80;99.90;;;;;;5060953;28;19928;-73
2023/01/30 06:35:36;;;;;;;;;;;5.70;99.90;;;;;;4994258;28;208583;-73
2023/01/30 06:38:02;;;;;;;;;;;5.80;99.90;;;;;;5040367;28;19932;-73
2023/01/30 06:40:28;;;;;;;;;;;5.70;99.90;;;;;;4972340;28;208107;-73
2023/01/30 06:42:54;;;;;;;;;;;5.70;99.90;;;;;;5022396;28;19925;-73
2023/01/30 06:45:20;;;;;;;;;;;5.60;99.90;;;;;;5007440;28;210458;-72
2023/01/30 06:47:51;;;;;;;;;;;5.60;99.90;;;;;;5058445;28;19935;-74
2023/01/30 06:50:18;;;;;;;;;;;5.60;99.90;;;;;;4987686;28;116762;-73
2023/01/30 06:52:45;;;;;;;;;;;5.60;99.90;;;;;;5040296;28;19936;-73
2023/01/30 06:55:11;;;;;;;;;;;5.70;99.90;;;;;;5007947;28;96424;-72
2023/01/30 06:57:37;;;;;;;;;;;5.80;99.90;;;;;;5057814;28;20394;-73
2023/01/30 07:00:04;;;;;;;;;;;5.80;99.90;;;;;;4944598;28;208201;-72
2023/01/30 07:02:34;;;;;;;;;;;5.90;99.90;;;;;;5015206;28;19955;-74
2023/01/30 07:05:06;;;;;;;;;;;5.90;99.90;;;;;;4966725;28;206442;-72
2023/01/30 07:07:32;;;;;;;;;;;6.00;99.90;;;;;;5036401;28;20028;-73
2023/01/30 07:09:59;;;;;;;;;;;6.00;99.90;;;;;;4977645;28;277725;-72
2023/01/30 07:12:25;;;;;;;;;;;6.10;99.90;;;;;;5041449;28;19929;-74
2023/01/30 07:14:54;;;;;;;;;;;6.10;99.90;;;;;;4970753;28;210269;-74
2023/01/30 07:17:20;;;;;;;;;;;6.10;99.90;;;;;;5051144;28;19929;-74
2023/01/30 07:19:46;;;;;;;;;;;6.00;99.90;;;;;;4989653;28;27872;-74
2023/01/30 07:22:12;;;;;;;;;;;6.00;99.90;;;;;;5044737;28;20484;-73
2023/01/30 07:24:38;;;;;;;;;;;6.00;99.90;;;;;;4994652;28;216134;-73
2023/01/30 07:27:11;;;;;;;;;;;6.00;99.90;;;;;;5051474;28;19928;-73
2023/01/30 07:29:38;;;;;;;;;;;6.00;99.90;;;;;;5017648;28;205791;-73
2023/01/30 07:32:04;;;;;;;;;;;6.00;99.90;;;;;;5055082;28;19925;-73
2023/01/30 07:34:30;;;;;;;;;;;5.90;99.90;;;;;;5020199;28;232379;-73
2023/01/30 07:36:56;;;;;;;;;;;6.00;99.90;;;;;;5074547;28;19933;-73
2023/01/30 07:39:22;;;;;;;;;;;6.00;99.90;;;;;;4991419;28;194977;-73
2023/01/30 07:41:48;;;;;;;;;;;6.00;99.90;;;;;;5056668;28;19961;-74
2023/01/30 07:44:14;;;;;;;;;;;6.00;99.90;;;;;;4983761;28;107432;-74
2023/01/30 07:46:40;;;;;;;;;;;6.10;99.90;;;;;;5020448;28;19928;-74
2023/01/30 07:49:08;;;;;;;;;;;6.20;99.90;;;;;;4987992;28;218527;-74
2023/01/30 07:51:34;;;;;;;;;;;6.10;99.90;;;;;;5037723;28;20257;-74
2023/01/30 07:54:00;;;;;;;;;;;6.10;99.90;;;;;;4959740;28;219882;-73
2023/01/30 07:56:27;;;;;;;;;;;6.20;99.90;;;;;;5033169;28;19935;-75
2023/01/30 07:58:53;;;;;;;;;;;6.20;99.90;;;;;;4986907;28;118241;-74
2023/01/30 08:01:19;;;;;;;;;;;6.20;99.90;;;;;;5074961;28;19924;-74
2023/01/30 08:03:47;;;;;;;;;;;6.20;99.90;;;;;;5004511;28;131841;-73
2023/01/30 08:06:14;;;;;;;;;;;6.20;99.90;;;;;;5093343;28;19925;-73
2023/01/30 08:08:40;;;;;;;;;;;6.20;99.90;;;;;;5021965;28;33293;-73
2023/01/30 08:11:06;;;;;;;;;;;6.30;99.90;;;;;;5067603;28;19925;-72
2023/01/30 08:13:32;;;;;;;;;;;6.30;99.90;;;;;;5013577;28;214944;-72
2023/01/30 08:15:59;;;;;;;;;;;6.30;99.90;;;;;;5080310;28;20372;-73
2023/01/30 08:18:25;;;;;;;;;;;6.30;99.90;;;;;;4990961;28;252118;-73
2023/01/30 08:20:50;;;;;;;;;;;6.30;99.90;;;;;;5043866;28;20386;-74
2023/01/30 08:23:16;;;;;;;;;;;6.30;99.90;;;;;;5019666;28;216015;-72
2023/01/30 08:25:42;;;;;;;;;;;6.30;99.90;;;;;;5011812;28;183864;-72
2023/01/30 08:28:08;;;;;;;;;;;6.30;99.90;;;;;;5059707;28;19924;-72
2023/01/30 08:30:34;;;;;;;;;;;6.40;99.90;;;;;;5000374;28;204066;-72
2023/01/30 08:33:00;;;;;;;;;;;6.40;99.90;;;;;;5060866;28;19939;-73
2023/01/30 08:35:26;;;;;;;;;;;6.40;99.90;;;;;;4973804;28;72238;-73
2023/01/30 08:37:52;;;;;;;;;;;6.40;99.90;;;;;;5021615;28;19928;-72
2023/01/30 08:40:18;;;;;;;;;;;6.40;99.90;;;;;;5016981;28;208766;-73
2023/01/30 08:42:44;;;;;;;;;;;6.40;99.90;;;;;;5058876;28;19938;-72
2023/01/30 08:45:10;;;;;;;;;;;6.50;99.90;;;;;;4986965;28;209480;-73
2023/01/30 08:47:36;;;;;;;;;;;6.40;99.90;;;;;;5041914;28;19947;-72
2023/01/30 08:50:03;;;;;;;;;;;6.50;99.90;;;;;;5017071;28;210810;-73
2023/01/30 08:52:28;;;;;;;;;;;6.50;99.90;;;;;;5040330;28;20385;-73
2023/01/30 08:54:54;;;;;;;;;;;6.50;99.90;;;;;;4963637;28;209827;-73
2023/01/30 08:57:20;;;;;;;;;;;6.50;99.90;;;;;;5035933;28;19933;-73
2023/01/30 08:59:46;;;;;;;;;;;6.50;99.90;;;;;;5012194;28;209964;-73
2023/01/30 09:02:12;;;;;;;;;;;6.50;99.90;;;;;;5061751;28;19983;-72
2023/01/30 09:04:38;;;;;;;;;;;6.50;99.90;;;;;;4978837;28;217330;-73
2023/01/30 09:07:04;;;;;;;;;;;6.50;99.90;;;;;;5035817;28;19928;-72
2023/01/30 09:09:30;;;;;;;;;;;6.50;99.90;;;;;;4997725;28;196689;-71
2023/01/30 09:11:56;;;;;;;;;;;6.60;99.90;;;;;;5044600;28;19932;-73
2023/01/30 09:14:22;;;;;;;;;;;6.70;99.90;;;;;;4976380;28;205228;-73
2023/01/30 09:16:54;;;;;;;;;;;6.80;99.90;;;;;;5033113;28;19936;-72
2023/01/30 09:19:21;;;;;;;;;;;6.80;99.90;;;;;;4990917;28;209658;-72
2023/01/30 09:21:48;;;;;;;;;;;6.90;99.90;;;;;;5058394;28;19936;-72
2023/01/30 09:24:14;;;;;;;;;;;6.90;99.90;;;;;;4998364;28;201326;-73
2023/01/30 09:26:43;;;;;;;;;;;7.00;99.90;;;;;;5039612;28;19933;-73
2023/01/30 09:29:10;;;;;;;;;;;7.00;99.90;;;;;;4995550;28;208975;-73
2023/01/30 09:31:36;;;;;;;;;;;7.00;99.90;;;;;;5047327;28;19944;-72
2023/01/30 09:34:02;;;;;;;;;;;7.00;99.90;;;;;;5002203;28;208156;-72
2023/01/30 09:36:28;;;;;;;;;;;7.10;99.90;;;;;;5031312;28;20516;-73
2023/01/30 09:38:54;;;;;;;;;;;7.30;99.90;;;;;;4994575;28;209137;-73
2023/01/30 09:41:41;;;;;;;;;;;7.30;99.90;;;;;;5055608;28;19973;-72
2023/01/30 09:44:10;;;;;;;;;;;7.30;99.90;;;;;;4978693;28;210293;-73
2023/01/30 09:46:52;;;;;;;;;;;7.30;99.90;;;;;;5033952;28;19921;-72
2023/01/30 09:49:27;;;;;;;;;;;7.30;99.90;;;;;;4989146;28;73693;-74
2023/01/30 09:51:59;;;;;;;;;;;7.20;99.90;;;;;;5026590;28;20356;-73
2023/01/30 09:54:28;;;;;;;;;;;6.90;99.90;;;;;;4998171;28;217557;-72
2023/01/30 09:56:57;;;;;;;;;;;6.70;99.90;;;;;;5044370;28;19932;-71
2023/01/30 09:59:28;;;;;;;;;;;6.60;99.90;;;;;;5003761;28;208040;-73
2023/01/30 10:02:17;;;;;;;;;;;6.50;99.90;;;;;;5058677;28;20381;-74
2023/01/30 10:04:46;;;;;;;;;;;6.50;99.90;;;;;;4971383;28;128133;-73
2023/01/30 10:07:18;;;;;;;;;;;6.40;99.90;;;;;;5039228;28;20286;-73
2023/01/30 10:09:54;;;;;;;;;;;6.50;99.90;;;;;;5018755;28;36336;-74
2023/01/30 10:12:38;;;;;;;;;;;6.60;99.90;;;;;;5042740;28;20848;-72
2023/01/30 10:15:19;;;;;;;;;;;6.80;99.90;;;;;;5010890;28;43876;-73
2023/01/30 10:17:44;;;;;;;;;;;6.90;99.90;;;;;;5069852;28;21705;-73
2023/01/30 10:20:13;;;;;;;;;;;7.00;99.90;;;;;;5003325;28;206524;-74
2023/01/30 10:22:54;;;;;;;;;;;7.10;99.90;;;;;;5043522;28;19936;-74
2023/01/30 10:25:26;;;;;;;;;;;7.30;99.90;;;;;;4963093;28;202973;-73
2023/01/30 10:28:11;;;;;;;;;;;7.30;99.90;;;;;;5041987;28;19936;-73
2023/01/30 10:30:37;;;;;;;;;;;7.30;99.90;;;;;;4968426;28;212832;-73
2023/01/30 10:33:07;;;;;;;;;;;7.40;99.90;;;;;;5043510;28;20266;-73
2023/01/30 10:35:34;;;;;;;;;;;7.40;99.90;;;;;;4986843;28;209749;-74
2023/01/30 10:38:11;;;;;;;;;;;7.60;99.90;;;;;;5042833;28;19933;-72
2023/01/30 10:40:40;;;;;;;;;;;7.50;99.90;;;;;;4986535;28;129539;-73
2023/01/30 10:43:15;;;;;;;;;;;7.50;99.90;;;;;;5057998;28;19936;-71
2023/01/30 10:45:41;;;;;;;;;;;7.40;99.90;;;;;;4994310;28;208709;-70
2023/01/30 10:48:34;;;;;;;;;;;7.10;99.90;;;;;;5042949;28;19932;-70
2023/01/30 10:51:21;;;;;;;;;;;6.80;99.90;;;;;;4959395;28;210357;-71
2023/01/30 10:53:52;;;;;;;;;;;6.40;99.90;;;;;;4991462;28;210429;-69
2023/01/30 10:56:26;;;;;;;;;;;6.10;99.90;;;;;;5029384;28;19929;-69
2023/01/30 10:59:11;;;;;;;;;;;5.70;99.90;;;;;;4975611;28;208914;-70
2023/01/30 11:01:42;;;;;;;;;;;5.60;99.90;;;;;;5028219;28;20290;-69
2023/01/30 11:04:34;;;;;;;;;;;5.60;99.90;;;;;;4967758;28;208480;-70
2023/01/30 11:07:00;;;;;;;;;;;5.50;99.90;;;;;;5031457;28;19936;-71
2023/01/30 11:09:43;;;;;;;;;;;5.70;99.90;;;;;;5014237;28;216054;-70
2023/01/30 11:12:09;;;;;;;;;;;5.80;99.90;;;;;;5044888;28;19928;-70
2023/01/30 11:14:55;;;;;;;;;;;5.90;99.90;;;;;;4981750;28;211977;-70
2023/01/30 11:17:27;;;;;;;;;;;6.00;99.90;;;;;;5040447;28;19929;-70
2023/01/30 11:19:55;;;;;;;;;;;6.20;99.90;;;;;;5000329;28;180668;-70
2023/01/30 11:22:24;;;;;;;;;;;6.30;99.90;;;;;;5045485;28;19928;-70
2023/01/30 11:24:58;;;;;;;;;;;6.40;99.90;;;;;;5003136;28;213818;-69
2023/01/30 11:27:27;;;;;;;;;;;6.50;99.90;;;;;;5043282;28;20553;-69
2023/01/30 11:30:01;;;;;;;;;;;6.80;99.90;;;;;;5003129;28;208640;-70
2023/01/30 11:32:28;;;;;;;;;;;7.00;99.90;;;;;;5042464;28;19936;-72
2023/01/30 11:35:21;;;;;;;;;;;7.30;99.90;;;;;;5007055;28;208555;-70
2023/01/30 11:37:47;;;;;;;;;;;7.30;99.90;;;;;;5067163;28;19947;-70
2023/01/30 11:40:19;;;;;;;;;;;7.20;99.90;;;;;;5013095;28;208600;-71
2023/01/30 11:42:46;;;;;;;;;;;7.10;99.90;;;;;;5068341;28;19927;-71
2023/01/30 11:45:12;;;;;;;;;;;7.00;99.90;;;;;;4995872;28;218676;-71
2023/01/30 11:47:45;;;;;;;;;;;7.00;99.90;;;;;;5042216;28;19934;-71
2023/01/30 11:50:15;;;;;;;;;;;6.90;99.90;;;;;;4995679;28;222111;-72
2023/01/30 11:52:42;;;;;;;;;;;6.90;99.90;;;;;;5048554;28;19944;-71
2023/01/30 11:55:11;;;;;;;;;;;6.90;99.90;;;;;;5006011;28;209151;-71
2023/01/30 11:57:39;;;;;;;;;;;6.80;99.90;;;;;;5024359;28;19936;-71
2023/01/30 12:00:12;;;;;;;;;;;6.80;99.90;;;;;;4970303;28;209137;-71
2023/01/30 12:02:38;;;;;;;;;;;6.90;99.90;;;;;;5023549;28;20397;-71
2023/01/30 12:05:05;;;;;;;;;;;6.90;99.90;;;;;;4991226;28;208119;-70
2023/01/30 12:07:36;;;;;;;;;;;7.10;99.90;;;;;;5042322;28;19928;-70
2023/01/30 12:10:22;;;;;;;;;;;7.10;99.90;;;;;;4999715;28;212867;-70
2023/01/30 12:12:49;;;;;;;;;;;7.30;99.90;;;;;;5043833;28;20260;-72
2023/01/30 12:15:21;;;;;;;;;;;7.40;99.90;;;;;;4995813;28;209885;-71
2023/01/30 12:17:50;;;;;;;;;;;7.40;99.90;;;;;;5041126;28;20315;-70
2023/01/30 12:20:19;;;;;;;;;;;7.30;99.90;;;;;;4980505;28;278690;-71
2023/01/30 12:23:02;;;;;;;;;;;7.30;99.90;;;;;;5040650;28;19936;-71
2023/01/30 12:25:34;;;;;;;;;;;7.30;99.90;;;;;;4944078;28;206065;-71
2023/01/30 12:28:02;;;;;;;;;;;7.30;99.90;;;;;;5040563;28;19933;-71
2023/01/30 12:30:46;;;;;;;;;;;7.30;99.90;;;;;;4963972;28;206540;-69
2023/01/30 12:33:14;;;;;;;;;;;7.20;99.90;;;;;;5040875;28;19921;-71
2023/01/30 12:35:51;;;;;;;;;;;7.20;99.90;;;;;;5008215;28;206112;-70
2023/01/30 12:38:22;;;;;;;;;;;7.20;99.90;;;;;;5023787;28;208230;-70
2023/01/30 12:40:54;;;;;;;;;;;7.30;99.90;;;;;;4961153;28;211966;-70
2023/01/30 12:43:20;;;;;;;;;;;7.40;99.90;;;;;;5024814;28;209843;-68
2023/01/30 12:45:52;;;;;;;;;;;7.80;99.90;;;;;;5006345;28;137304;-68
2023/01/30 12:48:28;;;;;;;;;;;8.40;99.90;;;;;;4999848;28;220032;-70
2023/01/30 12:51:07;;;;;;;;;;;9.40;99.90;;;;;;5022432;28;206624;-70
2023/01/30 12:53:39;;;;;;;;;;;9.60;99.90;;;;;;4992692;28;208308;-69
2023/01/30 12:56:14;;;;;;;;;;;8.70;99.90;;;;;;5036653;28;19936;-70
2023/01/30 12:58:44;;;;;;;;;;;8.70;99.90;;;;;;4985474;28;208578;-70
2023/01/30 13:01:29;;;;;;;;;;;9.20;99.90;;;;;;5047206;28;19927;-70
2023/01/30 13:04:00;;;;;;;;;;;9.80;99.90;;;;;;4981523;28;55314;-70
2023/01/30 13:06:29;;;;;;;;;;;9.30;99.90;;;;;;5016998;28;19928;-70
2023/01/30 13:09:09;;;;;;;;;;;9.20;99.90;;;;;;4991408;28;211634;-70
2023/01/30 13:11:43;;;;;;;;;;;8.60;99.90;;;;;;5067772;28;19925;-70
2023/01/30 13:14:09;;;;;;;;;;;8.30;99.90;;;;;;4984264;28;206470;-70
2023/01/30 13:16:49;;;;;;;;;;;8.20;99.90;;;;;;5031879;28;19986;-70
2023/01/30 13:19:22;;;;;;;;;;;8.20;99.90;;;;;;4988509;28;209055;-71
2023/01/30 13:21:53;;;;;;;;;;;8.60;99.90;;;;;;5041913;28;19925;-70
2023/01/30 13:24:18;;;;;;;;;;;8.20;99.90;;;;;;4978605;28;209276;-72
2023/01/30 13:26:45;;;;;;;;;;;8.10;99.90;;;;;;5015067;28;20015;-71
2023/01/30 13:29:30;;;;;;;;;;;7.90;99.90;;;;;;4981263;28;141771;-72
2023/01/30 13:31:58;;;;;;;;;;;7.80;99.90;;;;;;5045043;28;19931;-71
2023/01/30 13:34:30;;;;;;;;;;;7.70;99.90;;;;;;5002473;28;63193;-71
2023/01/30 13:36:59;;;;;;;;;;;7.60;99.90;;;;;;5027771;28;19929;-71
2023/01/30 13:39:38;;;;;;;;;;;7.60;99.90;;;;;;4970317;28;209069;-71
2023/01/30 13:42:06;;;;;;;;;;;7.60;99.90;;;;;;5044420;28;19936;-71
2023/01/30 13:44:34;;;;;;;;;;;7.60;99.90;;;;;;4992434;28;211596;-71
2023/01/30 13:47:23;;;;;;;;;;;7.60;99.90;;;;;;5024745;28;20483;-72
2023/01/30 13:50:13;;;;;;;;;;;7.60;99.90;;;;;;4971811;28;131857;-70
2023/01/30 13:52:43;;;;;;;;;;;7.60;99.90;;;;;;5018921;28;20305;-71
2023/01/30 13:55:24;;;;;;;;;;;7.60;99.90;;;;;;4986926;28;85012;-72
2023/01/30 13:57:56;;;;;;;;;;;7.60;99.90;;;;;;5020649;28;19932;-72
2023/01/30 14:00:25;;;;;;;;;;;7.70;99.90;;;;;;4987843;28;211309;-69
2023/01/30 14:03:06;;;;;;;;;;;7.80;99.90;;;;;;5038561;28;20614;-71
2023/01/30 14:05:56;;;;;;;;;;;7.90;99.90;;;;;;4962557;28;252698;-70
2023/01/30 14:08:24;;;;;;;;;;;8.00;99.90;;;;;;5023865;28;208075;-70
2023/01/30 14:10:50;;;;;;;;;;;8.00;99.90;;;;;;5022003;28;206938;-70
2023/01/30 14:13:17;;;;;;;;;;;7.90;99.90;;;;;;5042358;28;208637;-69
2023/01/30 14:15:53;;;;;;;;;;;7.90;99.90;;;;;;5019118;28;201623;-69
2023/01/30 14:18:25;;;;;;;;;;;8.00;99.90;;;;;;5015895;28;208287;-69
2023/01/30 14:21:09;;;;;;;;;;;8.00;99.90;;;;;;5025264;28;210427;-70
2023/01/30 14:23:35;;;;;;;;;;;8.10;99.90;;;;;;4990129;28;210010;-69
2023/01/30 14:26:01;;;;;;;;;;;8.00;99.90;;;;;;5044560;28;19933;-69
2023/01/30 14:28:27;;;;;;;;;;;8.10;99.90;;;;;;4984438;28;219877;-69
2023/01/30 14:30:55;;;;;;;;;;;8.10;99.90;;;;;;5057704;28;19978;-69
2023/01/30 14:33:21;;;;;;;;;;;8.40;99.90;;;;;;5014997;28;209170;-70
2023/01/30 14:36:10;;;;;;;;;;;9.10;99.90;;;;;;5060728;28;19925;-70
2023/01/30 14:38:37;;;;;;;;;;;8.80;99.90;;;;;;4993019;28;206964;-70
2023/01/30 14:41:03;;;;;;;;;;;8.60;99.90;;;;;;5062823;28;19920;-69